PWSweather.com
Personal Weather Stations
Station Observations
ANTHEMNP
Anthem North Parkside, Anthem, AZ 85086

Anthem North ParksideAnthem, AZ 85086

Lat: 33.876464, Lon: -112.13861199999997

Elevation: 1930

Station Type: Davis Vantage Vue with Pro 2 console

http://www.azjerry.com/ANPW/wxindex.php

High Low Average
Temperature 101.8°F38.8°C 71.0°F21.7°C 88.0°F31.1°C
Dew Point 31.0°F-0.6°C -19.0°F-28.3°C 14.3°F-9.8°C
Winds 4.8 mph 7.7 kmh Calm Calm 1.0 mph SE1.6 kmh SE
Wind Gusts 12.0 mph19.3 kmh -- 4.0 mph6.4 kmh
Humidity 14% 1% 8%
Pressure 29.84 in1010.5 mb 29.84 in1010.5 mb -
Precipitation 0.00 in0.0 mm - -
Hour Temp Dew Point Humidity Winds Wind Gusts Pressure Precip Precip Rate Daily Precip Total
12:00 AM 78.2°F25.7°C 17.0°F-8.3°C 10% Calm Calm 1.0 mph1.6 kmh 29.84 in1010.5 mb 0.00 in0.0 mm 0.00 in0.0 mm 0.00 in0.0 mm
12:10 AM 77.7°F25.4°C 17.0°F-8.3°C 10% Calm Calm 1.0 mph1.6 kmh 29.84 in1010.5 mb 0.00 in0.0 mm 0.00 in0.0 mm 0.00 in0.0 mm
12:20 AM 76.8°F24.9°C 16.0°F-8.9°C 10% 0.6 mph N1.0 kmh N 1.0 mph1.6 kmh 29.84 in1010.5 mb 0.00 in0.0 mm 0.00 in0.0 mm 0.00 in0.0 mm
12:30 AM 77.5°F25.3°C 17.0°F-8.3°C 10% 0.2 mph NNE0.3 kmh NNE 1.0 mph1.6 kmh 29.84 in1010.5 mb 0.00 in0.0 mm 0.00 in0.0 mm 0.00 in0.0 mm
12:40 AM 76.7°F24.8°C 16.0°F-8.9°C 10% Calm Calm 1.0 mph1.6 kmh 29.84 in1010.5 mb 0.00 in0.0 mm 0.00 in0.0 mm 0.00 in0.0 mm
12:50 AM 76.4°F24.7°C 16.0°F-8.9°C 10% 0.1 mph NNE0.2 kmh NNE 1.0 mph1.6 kmh 29.84 in1010.5 mb 0.00 in0.0 mm 0.00 in0.0 mm 0.00 in0.0 mm
01:00 AM 76.1°F24.5°C 16.0°F-8.9°C 10% Calm Calm -- 29.84 in1010.5 mb 0.00 in0.0 mm 0.00 in0.0 mm 0.00 in0.0 mm
01:10 AM 75.2°F24.0°C 17.0°F-8.3°C 11% 0.2 mph NNE0.3 kmh NNE 1.0 mph1.6 kmh 29.84 in1010.5 mb 0.00 in0.0 mm 0.00 in0.0 mm 0.00 in0.0 mm
01:20 AM 74.8°F23.8°C 19.0°F-7.2°C 12% Calm Calm 1.0 mph1.6 kmh 29.84 in1010.5 mb 0.00 in0.0 mm 0.00 in0.0 mm 0.00 in0.0 mm
01:30 AM 73.7°F23.2°C 16.0°F-8.9°C 11% Calm Calm 1.0 mph1.6 kmh 29.84 in1010.5 mb 0.00 in0.0 mm 0.00 in0.0 mm 0.00 in0.0 mm
01:40 AM 72.7°F22.6°C 17.0°F-8.3°C 12% 0.3 mph NNE0.5 kmh NNE 1.0 mph1.6 kmh 29.84 in1010.5 mb 0.00 in0.0 mm 0.00 in0.0 mm 0.00 in0.0 mm
01:50 AM 71.5°F21.9°C 16.0°F-8.9°C 12% 0.1 mph NNE0.2 kmh NNE 1.0 mph1.6 kmh 29.84 in1010.5 mb 0.00 in0.0 mm 0.00 in0.0 mm 0.00 in0.0 mm
02:00 AM 71.2°F21.8°C 18.0°F-7.8°C 13% 0.3 mph NNE0.5 kmh NNE 1.0 mph1.6 kmh 29.84 in1010.5 mb 0.00 in0.0 mm 0.00 in0.0 mm 0.00 in0.0 mm
02:10 AM 72.3°F22.4°C 15.0°F-9.4°C 11% 0.3 mph N0.5 kmh N 2.0 mph3.2 kmh 29.84 in1010.5 mb 0.00 in0.0 mm 0.00 in0.0 mm 0.00 in0.0 mm
02:20 AM 72.5°F22.5°C 15.0°F-9.4°C 11% 0.3 mph NNE0.5 kmh NNE 2.0 mph3.2 kmh 29.84 in1010.5 mb 0.00 in0.0 mm 0.00 in0.0 mm 0.00 in0.0 mm
02:30 AM 73.1°F22.8°C 15.0°F-9.4°C 11% 1.1 mph NE1.8 kmh NE 3.0 mph4.8 kmh 29.84 in1010.5 mb 0.00 in0.0 mm 0.00 in0.0 mm 0.00 in0.0 mm
02:40 AM 73.3°F22.9°C 13.0°F-10.6°C 10% 1.5 mph N2.4 kmh N 3.0 mph4.8 kmh 29.84 in1010.5 mb 0.00 in0.0 mm 0.00 in0.0 mm 0.00 in0.0 mm
02:55 AM 74.2°F23.4°C 14.0°F-10.0°C 10% 1.4 mph NNE2.3 kmh NNE 3.0 mph4.8 kmh 29.84 in1010.5 mb 0.00 in0.0 mm 0.00 in0.0 mm 0.00 in0.0 mm
03:00 AM 74.2°F23.4°C 14.0°F-10.0°C 10% 1.3 mph NNE2.1 kmh NNE 3.0 mph4.8 kmh 29.84 in1010.5 mb 0.00 in0.0 mm 0.00 in0.0 mm 0.00 in0.0 mm
03:10 AM 74.1°F23.4°C 14.0°F-10.0°C 10% 0.6 mph NNE1.0 kmh NNE 3.0 mph4.8 kmh 29.84 in1010.5 mb 0.00 in0.0 mm 0.00 in0.0 mm 0.00 in0.0 mm
03:20 AM 73.3°F22.9°C 16.0°F-8.9°C 11% 0.1 mph NNE0.2 kmh NNE 1.0 mph1.6 kmh 29.84 in1010.5 mb 0.00 in0.0 mm 0.00 in0.0 mm 0.00 in0.0 mm
03:30 AM 71.4°F21.9°C 16.0°F-8.9°C 12% 0.1 mph NNE0.2 kmh NNE 1.0 mph1.6 kmh 29.84 in1010.5 mb 0.00 in0.0 mm 0.00 in0.0 mm 0.00 in0.0 mm
03:40 AM 71.0°F21.7°C 16.0°F-8.9°C 12% 1.1 mph NNE1.8 kmh NNE 3.0 mph4.8 kmh 29.84 in1010.5 mb 0.00 in0.0 mm 0.00 in0.0 mm 0.00 in0.0 mm
03:50 AM 71.7°F22.1°C 16.0°F-8.9°C 12% 1.1 mph NNE1.8 kmh NNE 2.0 mph3.2 kmh 29.84 in1010.5 mb 0.00 in0.0 mm 0.00 in0.0 mm 0.00 in0.0 mm
04:00 AM 71.9°F22.2°C 16.0°F-8.9°C 12% 0.9 mph NNE1.4 kmh NNE 2.0 mph3.2 kmh 29.84 in1010.5 mb 0.00 in0.0 mm 0.00 in0.0 mm 0.00 in0.0 mm
04:10 AM 72.4°F22.4°C 17.0°F-8.3°C 12% 2.1 mph N3.4 kmh N 3.0 mph4.8 kmh 29.84 in1010.5 mb 0.00 in0.0 mm 0.00 in0.0 mm 0.00 in0.0 mm
04:20 AM 71.7°F22.1°C 16.0°F-8.9°C 12% 2.1 mph NNE3.4 kmh NNE 4.0 mph6.4 kmh 29.84 in1010.5 mb 0.00 in0.0 mm 0.00 in0.0 mm 0.00 in0.0 mm
04:30 AM 71.7°F22.1°C 16.0°F-8.9°C 12% 2.6 mph N4.2 kmh N 5.0 mph8.0 kmh 29.84 in1010.5 mb 0.00 in0.0 mm 0.00 in0.0 mm 0.00 in0.0 mm
04:40 AM 71.6°F22.0°C 16.0°F-8.9°C 12% 2.0 mph N3.2 kmh N 3.0 mph4.8 kmh 29.84 in1010.5 mb 0.00 in0.0 mm 0.00 in0.0 mm 0.00 in0.0 mm
04:50 AM 71.6°F22.0°C 16.0°F-8.9°C 12% 2.7 mph N4.3 kmh N 4.0 mph6.4 kmh 29.84 in1010.5 mb 0.00 in0.0 mm 0.00 in0.0 mm 0.00 in0.0 mm
05:00 AM 71.7°F22.1°C 16.0°F-8.9°C 12% 2.7 mph NNW4.3 kmh NNW 5.0 mph8.0 kmh 29.84 in1010.5 mb 0.00 in0.0 mm 0.00 in0.0 mm 0.00 in0.0 mm
05:10 AM 71.8°F22.1°C 16.0°F-8.9°C 12% 2.6 mph N4.2 kmh N 6.0 mph9.7 kmh 29.84 in1010.5 mb 0.00 in0.0 mm 0.00 in0.0 mm 0.00 in0.0 mm
05:20 AM 71.8°F22.1°C 18.0°F-7.8°C 13% 2.1 mph N3.4 kmh N 4.0 mph6.4 kmh 29.84 in1010.5 mb 0.00 in0.0 mm 0.00 in0.0 mm 0.00 in0.0 mm
05:30 AM 71.9°F22.2°C 18.0°F-7.8°C 13% 2.9 mph NE4.7 kmh NE 6.0 mph9.7 kmh 29.84 in1010.5 mb 0.00 in0.0 mm 0.00 in0.0 mm 0.00 in0.0 mm
05:40 AM 72.4°F22.4°C 17.0°F-8.3°C 12% 4.8 mph NNE7.7 kmh NNE 7.0 mph11.3 kmh 29.84 in1010.5 mb 0.00 in0.0 mm 0.00 in0.0 mm 0.00 in0.0 mm
05:50 AM 72.7°F22.6°C 17.0°F-8.3°C 12% 3.3 mph NE5.3 kmh NE 7.0 mph11.3 kmh 29.84 in1010.5 mb 0.00 in0.0 mm 0.00 in0.0 mm 0.00 in0.0 mm
06:00 AM 72.7°F22.6°C 17.0°F-8.3°C 12% 3.3 mph NE5.3 kmh NE 6.0 mph9.7 kmh 29.84 in1010.5 mb 0.00 in0.0 mm 0.00 in0.0 mm 0.00 in0.0 mm
06:10 AM 72.8°F22.7°C 17.0°F-8.3°C 12% 2.3 mph N3.7 kmh N 5.0 mph8.0 kmh 29.84 in1010.5 mb 0.00 in0.0 mm 0.00 in0.0 mm 0.00 in0.0 mm
06:20 AM 74.0°F23.3°C 18.0°F-7.8°C 12% 2.3 mph N3.7 kmh N 5.0 mph8.0 kmh 29.84 in1010.5 mb 0.00 in0.0 mm 0.00 in0.0 mm 0.00 in0.0 mm
06:30 AM 75.2°F24.0°C 21.0°F-6.1°C 13% 1.0 mph NNE1.6 kmh NNE 2.0 mph3.2 kmh 29.84 in1010.5 mb 0.00 in0.0 mm 0.00 in0.0 mm 0.00 in0.0 mm
06:40 AM 76.3°F24.6°C 20.0°F-6.7°C 12% 1.1 mph NNE1.8 kmh NNE 2.0 mph3.2 kmh 29.84 in1010.5 mb 0.00 in0.0 mm 0.00 in0.0 mm 0.00 in0.0 mm
06:50 AM 77.1°F25.1°C 19.0°F-7.2°C 11% 2.7 mph N4.3 kmh N 6.0 mph9.7 kmh 29.84 in1010.5 mb 0.00 in0.0 mm 0.00 in0.0 mm 0.00 in0.0 mm
07:00 AM 78.2°F25.7°C 19.0°F-7.2°C 11% 1.8 mph NNE2.9 kmh NNE 4.0 mph6.4 kmh 29.84 in1010.5 mb 0.00 in0.0 mm 0.00 in0.0 mm 0.00 in0.0 mm
07:10 AM 78.8°F26.0°C 20.0°F-6.7°C 11% 2.7 mph NNW4.3 kmh NNW 5.0 mph8.0 kmh 29.84 in1010.5 mb 0.00 in0.0 mm 0.00 in0.0 mm 0.00 in0.0 mm
07:20 AM 79.7°F26.5°C 21.0°F-6.1°C 11% 2.5 mph NE4.0 kmh NE 4.0 mph6.4 kmh 29.84 in1010.5 mb 0.00 in0.0 mm 0.00 in0.0 mm 0.00 in0.0 mm
07:30 AM 80.5°F26.9°C 19.0°F-7.2°C 10% 3.1 mph N5.0 kmh N 7.0 mph11.3 kmh 29.84 in1010.5 mb 0.00 in0.0 mm 0.00 in0.0 mm 0.00 in0.0 mm
07:40 AM 81.8°F27.7°C 20.0°F-6.7°C 10% 2.3 mph NW3.7 kmh NW 5.0 mph8.0 kmh 29.84 in1010.5 mb 0.00 in0.0 mm 0.00 in0.0 mm 0.00 in0.0 mm
07:50 AM 82.9°F28.3°C 21.0°F-6.1°C 10% 2.5 mph NNE4.0 kmh NNE 5.0 mph8.0 kmh 29.84 in1010.5 mb 0.00 in0.0 mm 0.00 in0.0 mm 0.00 in0.0 mm
08:00 AM 84.2°F29.0°C 22.0°F-5.6°C 10% 1.2 mph N1.9 kmh N 4.0 mph6.4 kmh 29.84 in1010.5 mb 0.00 in0.0 mm 0.00 in0.0 mm 0.00 in0.0 mm
08:10 AM 85.2°F29.6°C 23.0°F-5.0°C 10% 1.4 mph NNW2.3 kmh NNW 3.0 mph4.8 kmh 29.84 in1010.5 mb 0.00 in0.0 mm 0.00 in0.0 mm 0.00 in0.0 mm
08:20 AM 86.4°F30.2°C 21.0°F-6.1°C 9% 0.6 mph NNW1.0 kmh NNW 2.0 mph3.2 kmh 29.84 in1010.5 mb 0.00 in0.0 mm 0.00 in0.0 mm 0.00 in0.0 mm
08:30 AM 87.4°F30.8°C 22.0°F-5.6°C 9% 0.4 mph N0.6 kmh N 2.0 mph3.2 kmh 29.84 in1010.5 mb 0.00 in0.0 mm 0.00 in0.0 mm 0.00 in0.0 mm
08:40 AM 88.9°F31.6°C 20.0°F-6.7°C 8% 0.3 mph SSE0.5 kmh SSE 2.0 mph3.2 kmh 29.84 in1010.5 mb 0.00 in0.0 mm 0.00 in0.0 mm 0.00 in0.0 mm
08:50 AM 89.3°F31.8°C 23.0°F-5.0°C 9% 1.0 mph WSW1.6 kmh WSW 2.0 mph3.2 kmh 29.84 in1010.5 mb 0.00 in0.0 mm 0.00 in0.0 mm 0.00 in0.0 mm
09:00 AM 90.1°F32.3°C 18.0°F-7.8°C 7% 0.3 mph E0.5 kmh E 3.0 mph4.8 kmh 29.84 in1010.5 mb 0.00 in0.0 mm 0.00 in0.0 mm 0.00 in0.0 mm
09:10 AM 91.2°F32.9°C 22.0°F-5.6°C 8% 0.5 mph SW0.8 kmh SW 2.0 mph3.2 kmh 29.84 in1010.5 mb 0.00 in0.0 mm 0.00 in0.0 mm 0.00 in0.0 mm
09:20 AM 91.4°F33.0°C 22.0°F-5.6°C 8% - S S 4.0 mph6.4 kmh 29.84 in1010.5 mb 0.00 in0.0 mm 0.00 in0.0 mm 0.00 in0.0 mm
09:30 AM 92.8°F33.8°C 12.0°F-11.1°C 5% 1.3 mph SW2.1 kmh SW 4.0 mph6.4 kmh 29.84 in1010.5 mb 0.00 in0.0 mm 0.00 in0.0 mm 0.00 in0.0 mm
09:40 AM 91.9°F33.3°C 12.0°F-11.1°C 5% 1.7 mph SE2.7 kmh SE 4.0 mph6.4 kmh 29.84 in1010.5 mb 0.00 in0.0 mm 0.00 in0.0 mm 0.00 in0.0 mm
09:50 AM 92.9°F33.8°C 17.0°F-8.3°C 6% 1.4 mph SW2.3 kmh SW 4.0 mph6.4 kmh 29.84 in1010.5 mb 0.00 in0.0 mm 0.00 in0.0 mm 0.00 in0.0 mm
10:00 AM 92.8°F33.8°C 16.0°F-8.9°C 6% 1.4 mph SW2.3 kmh SW 5.0 mph8.0 kmh 29.84 in1010.5 mb 0.00 in0.0 mm 0.00 in0.0 mm 0.00 in0.0 mm
10:10 AM 93.4°F34.1°C 8.0°F-13.3°C 4% 1.6 mph SSW2.6 kmh SSW 4.0 mph6.4 kmh 29.84 in1010.5 mb 0.00 in0.0 mm 0.00 in0.0 mm 0.00 in0.0 mm
10:20 AM 93.6°F34.2°C 8.0°F-13.3°C 4% 2.6 mph SW4.2 kmh SW 12.0 mph19.3 kmh 29.84 in1010.5 mb 0.00 in0.0 mm 0.00 in0.0 mm 0.00 in0.0 mm
10:30 AM 93.5°F34.2°C 1.0°F-17.2°C 3% 3.5 mph SW5.6 kmh SW 8.0 mph12.9 kmh 29.84 in1010.5 mb 0.00 in0.0 mm 0.00 in0.0 mm 0.00 in0.0 mm
10:40 AM 93.4°F34.1°C 1.0°F-17.2°C 3% 2.9 mph SSE4.7 kmh SSE 8.0 mph12.9 kmh 29.84 in1010.5 mb 0.00 in0.0 mm 0.00 in0.0 mm 0.00 in0.0 mm
10:50 AM 93.5°F34.2°C 1.0°F-17.2°C 3% 1.5 mph SSW2.4 kmh SSW 11.0 mph17.7 kmh 29.84 in1010.5 mb 0.00 in0.0 mm 0.00 in0.0 mm 0.00 in0.0 mm
11:00 AM 95.1°F35.1°C 3.0°F-16.1°C 3% 2.1 mph S3.4 kmh S 8.0 mph12.9 kmh 29.84 in1010.5 mb 0.00 in0.0 mm 0.00 in0.0 mm 0.00 in0.0 mm
11:10 AM 95.4°F35.2°C -6.0°F-21.1°C 2% 2.3 mph SE3.7 kmh SE 6.0 mph9.7 kmh 29.84 in1010.5 mb 0.00 in0.0 mm 0.00 in0.0 mm 0.00 in0.0 mm
11:20 AM 96.3°F35.7°C -5.0°F-20.6°C 2% 2.0 mph SE3.2 kmh SE 6.0 mph9.7 kmh 29.84 in1010.5 mb 0.00 in0.0 mm 0.00 in0.0 mm 0.00 in0.0 mm
11:30 AM 96.3°F35.7°C -5.0°F-20.6°C 2% 1.4 mph ESE2.3 kmh ESE 7.0 mph11.3 kmh 29.84 in1010.5 mb 0.00 in0.0 mm 0.00 in0.0 mm 0.00 in0.0 mm
11:40 AM 96.5°F35.8°C -5.0°F-20.6°C 2% 3.3 mph NNE5.3 kmh NNE 7.0 mph11.3 kmh 29.84 in1010.5 mb 0.00 in0.0 mm 0.00 in0.0 mm 0.00 in0.0 mm
11:50 AM 96.6°F35.9°C 4.0°F-15.6°C 3% - SE SE 5.0 mph8.0 kmh 29.84 in1010.5 mb 0.00 in0.0 mm 0.00 in0.0 mm 0.00 in0.0 mm
12:00 PM 96.4°F35.8°C 3.0°F-16.1°C 3% 2.1 mph SE3.4 kmh SE 8.0 mph12.9 kmh 29.84 in1010.5 mb 0.00 in0.0 mm 0.00 in0.0 mm 0.00 in0.0 mm
12:10 PM 97.7°F36.5°C -5.0°F-20.6°C 2% 2.9 mph SE4.7 kmh SE 6.0 mph9.7 kmh 29.84 in1010.5 mb 0.00 in0.0 mm 0.00 in0.0 mm 0.00 in0.0 mm
12:20 PM 97.3°F36.3°C 4.0°F-15.6°C 3% 4.0 mph SSW6.4 kmh SSW 7.0 mph11.3 kmh 29.84 in1010.5 mb 0.00 in0.0 mm 0.00 in0.0 mm 0.00 in0.0 mm
12:30 PM 97.6°F36.4°C -19.0°F-28.3°C 1% 3.2 mph S5.1 kmh S 8.0 mph12.9 kmh 29.84 in1010.5 mb 0.00 in0.0 mm 0.00 in0.0 mm 0.00 in0.0 mm
12:40 PM 98.1°F36.7°C -4.0°F-20.0°C 2% - ENE ENE 6.0 mph9.7 kmh 29.84 in1010.5 mb 0.00 in0.0 mm 0.00 in0.0 mm 0.00 in0.0 mm
12:50 PM 98.4°F36.9°C 11.0°F-11.7°C 4% 2.4 mph SE3.9 kmh SE 9.0 mph14.5 kmh 29.84 in1010.5 mb 0.00 in0.0 mm 0.00 in0.0 mm 0.00 in0.0 mm
01:00 PM 98.6°F37.0°C -4.0°F-20.0°C 2% 4.2 mph SSW6.8 kmh SSW 9.0 mph14.5 kmh 29.84 in1010.5 mb 0.00 in0.0 mm 0.00 in0.0 mm 0.00 in0.0 mm
01:10 PM 99.0°F37.2°C -4.0°F-20.0°C 2% 3.3 mph S5.3 kmh S 9.0 mph14.5 kmh 29.84 in1010.5 mb 0.00 in0.0 mm 0.00 in0.0 mm 0.00 in0.0 mm
01:20 PM 98.7°F37.1°C -4.0°F-20.0°C 2% 2.0 mph SW3.2 kmh SW 9.0 mph14.5 kmh 29.84 in1010.5 mb 0.00 in0.0 mm 0.00 in0.0 mm 0.00 in0.0 mm
01:30 PM 98.9°F37.2°C -4.0°F-20.0°C 2% 4.0 mph SSW6.4 kmh SSW 9.0 mph14.5 kmh 29.84 in1010.5 mb 0.00 in0.0 mm 0.00 in0.0 mm 0.00 in0.0 mm
01:40 PM 99.5°F37.5°C -3.0°F-19.4°C 2% 1.1 mph SE1.8 kmh SE 6.0 mph9.7 kmh 29.84 in1010.5 mb 0.00 in0.0 mm 0.00 in0.0 mm 0.00 in0.0 mm
01:50 PM 100.2°F37.9°C -17.0°F-27.2°C 1% 2.5 mph SSE4.0 kmh SSE 6.0 mph9.7 kmh 29.84 in1010.5 mb 0.00 in0.0 mm 0.00 in0.0 mm 0.00 in0.0 mm
02:00 PM 100.1°F37.8°C -17.0°F-27.2°C 1% 2.0 mph SSW3.2 kmh SSW 7.0 mph11.3 kmh 29.84 in1010.5 mb 0.00 in0.0 mm 0.00 in0.0 mm 0.00 in0.0 mm
02:10 PM 100.0°F37.8°C -17.0°F-27.2°C 1% 2.9 mph E4.7 kmh E 7.0 mph11.3 kmh 29.84 in1010.5 mb 0.00 in0.0 mm 0.00 in0.0 mm 0.00 in0.0 mm
02:20 PM 100.7°F38.2°C -3.0°F-19.4°C 2% 2.3 mph S3.7 kmh S 6.0 mph9.7 kmh 29.84 in1010.5 mb 0.00 in0.0 mm 0.00 in0.0 mm 0.00 in0.0 mm
02:30 PM 101.5°F38.6°C -2.0°F-18.9°C 2% 0.9 mph SW1.4 kmh SW 5.0 mph8.0 kmh 29.84 in1010.5 mb 0.00 in0.0 mm 0.00 in0.0 mm 0.00 in0.0 mm
02:40 PM 100.9°F38.3°C -2.0°F-18.9°C 2% 0.4 mph SSW0.6 kmh SSW 3.0 mph4.8 kmh 29.84 in1010.5 mb 0.00 in0.0 mm 0.00 in0.0 mm 0.00 in0.0 mm
02:50 PM 101.1°F38.4°C -2.0°F-18.9°C 2% 0.1 mph SW0.2 kmh SW 3.0 mph4.8 kmh 29.84 in1010.5 mb 0.00 in0.0 mm 0.00 in0.0 mm 0.00 in0.0 mm
03:00 PM 101.2°F38.4°C -2.0°F-18.9°C 2% 1.5 mph SW2.4 kmh SW 6.0 mph9.7 kmh 29.84 in1010.5 mb 0.00 in0.0 mm 0.00 in0.0 mm 0.00 in0.0 mm
03:10 PM 101.6°F38.7°C -2.0°F-18.9°C 2% 0.7 mph SSW1.1 kmh SSW 4.0 mph6.4 kmh 29.84 in1010.5 mb 0.00 in0.0 mm 0.00 in0.0 mm 0.00 in0.0 mm
03:20 PM 101.7°F38.7°C -2.0°F-18.9°C 2% 2.6 mph SE4.2 kmh SE 7.0 mph11.3 kmh 29.84 in1010.5 mb 0.00 in0.0 mm 0.00 in0.0 mm 0.00 in0.0 mm
03:30 PM 101.8°F38.8°C 7.0°F-13.9°C 3% 1.4 mph E2.3 kmh E 6.0 mph9.7 kmh 29.84 in1010.5 mb 0.00 in0.0 mm 0.00 in0.0 mm 0.00 in0.0 mm
03:40 PM 101.4°F38.6°C 7.0°F-13.9°C 3% 1.9 mph SSW3.1 kmh SSW 8.0 mph12.9 kmh 29.84 in1010.5 mb 0.00 in0.0 mm 0.00 in0.0 mm 0.00 in0.0 mm
03:50 PM 101.0°F38.3°C 7.0°F-13.9°C 3% 1.6 mph S2.6 kmh S 7.0 mph11.3 kmh 29.84 in1010.5 mb 0.00 in0.0 mm 0.00 in0.0 mm 0.00 in0.0 mm
04:00 PM 100.6°F38.1°C 6.0°F-14.4°C 3% 1.5 mph SSW2.4 kmh SSW 5.0 mph8.0 kmh 29.84 in1010.5 mb 0.00 in0.0 mm 0.00 in0.0 mm 0.00 in0.0 mm
04:10 PM 100.9°F38.3°C 6.0°F-14.4°C 3% 2.8 mph SW4.5 kmh SW 10.0 mph16.1 kmh 29.84 in1010.5 mb 0.00 in0.0 mm 0.00 in0.0 mm 0.00 in0.0 mm
04:20 PM 100.0°F37.8°C 12.0°F-11.1°C 4% 3.2 mph SW5.1 kmh SW 9.0 mph14.5 kmh 29.84 in1010.5 mb 0.00 in0.0 mm 0.00 in0.0 mm 0.00 in0.0 mm
04:30 PM 100.4°F38.0°C 13.0°F-10.6°C 4% 3.1 mph S5.0 kmh S 9.0 mph14.5 kmh 29.84 in1010.5 mb 0.00 in0.0 mm 0.00 in0.0 mm 0.00 in0.0 mm
04:40 PM 100.0°F37.8°C 12.0°F-11.1°C 4% 2.5 mph WSW4.0 kmh WSW 9.0 mph14.5 kmh 29.84 in1010.5 mb 0.00 in0.0 mm 0.00 in0.0 mm 0.00 in0.0 mm
04:50 PM 100.5°F38.1°C 18.0°F-7.8°C 5% 2.0 mph S3.2 kmh S 7.0 mph11.3 kmh 29.84 in1010.5 mb 0.00 in0.0 mm 0.00 in0.0 mm 0.00 in0.0 mm
05:00 PM 99.9°F37.7°C 22.0°F-5.6°C 6% 1.9 mph SSW3.1 kmh SSW 7.0 mph11.3 kmh 29.84 in1010.5 mb 0.00 in0.0 mm 0.00 in0.0 mm 0.00 in0.0 mm
05:10 PM 99.5°F37.5°C 17.0°F-8.3°C 5% 1.7 mph SSW2.7 kmh SSW 6.0 mph9.7 kmh 29.84 in1010.5 mb 0.00 in0.0 mm 0.00 in0.0 mm 0.00 in0.0 mm
05:20 PM 99.3°F37.4°C 21.0°F-6.1°C 6% 2.7 mph SW4.3 kmh SW 7.0 mph11.3 kmh 29.84 in1010.5 mb 0.00 in0.0 mm 0.00 in0.0 mm 0.00 in0.0 mm
05:30 PM 99.3°F37.4°C 17.0°F-8.3°C 5% 1.7 mph NW2.7 kmh NW 6.0 mph9.7 kmh 29.84 in1010.5 mb 0.00 in0.0 mm 0.00 in0.0 mm 0.00 in0.0 mm
05:40 PM 99.8°F37.7°C 22.0°F-5.6°C 6% 3.9 mph SSW6.3 kmh SSW 10.0 mph16.1 kmh 29.84 in1010.5 mb 0.00 in0.0 mm 0.00 in0.0 mm 0.00 in0.0 mm
05:50 PM 99.5°F37.5°C 17.0°F-8.3°C 5% 1.7 mph SW2.7 kmh SW 5.0 mph8.0 kmh 29.84 in1010.5 mb 0.00 in0.0 mm 0.00 in0.0 mm 0.00 in0.0 mm
06:00 PM 99.1°F37.3°C 21.0°F-6.1°C 6% 1.3 mph SW2.1 kmh SW 4.0 mph6.4 kmh 29.84 in1010.5 mb 0.00 in0.0 mm 0.00 in0.0 mm 0.00 in0.0 mm
06:10 PM 99.2°F37.3°C 21.0°F-6.1°C 6% 2.4 mph SW3.9 kmh SW 6.0 mph9.7 kmh 29.84 in1010.5 mb 0.00 in0.0 mm 0.00 in0.0 mm 0.00 in0.0 mm
06:20 PM 99.0°F37.2°C 21.0°F-6.1°C 6% 2.2 mph SW3.5 kmh SW 6.0 mph9.7 kmh 29.84 in1010.5 mb 0.00 in0.0 mm 0.00 in0.0 mm 0.00 in0.0 mm
06:30 PM 98.7°F37.1°C 21.0°F-6.1°C 6% 1.7 mph SW2.7 kmh SW 6.0 mph9.7 kmh 29.84 in1010.5 mb 0.00 in0.0 mm 0.00 in0.0 mm 0.00 in0.0 mm
06:40 PM 98.4°F36.9°C 21.0°F-6.1°C 6% 0.9 mph SW1.4 kmh SW 4.0 mph6.4 kmh 29.84 in1010.5 mb 0.00 in0.0 mm 0.00 in0.0 mm 0.00 in0.0 mm
06:50 PM 98.0°F36.7°C 20.0°F-6.7°C 6% 0.1 mph SW0.2 kmh SW 2.0 mph3.2 kmh 29.84 in1010.5 mb 0.00 in0.0 mm 0.00 in0.0 mm 0.00 in0.0 mm
07:00 PM 97.8°F36.6°C 20.0°F-6.7°C 6% Calm Calm 2.0 mph3.2 kmh 29.84 in1010.5 mb 0.00 in0.0 mm 0.00 in0.0 mm 0.00 in0.0 mm
07:10 PM 97.7°F36.5°C 20.0°F-6.7°C 6% 1.1 mph SSW1.8 kmh SSW 4.0 mph6.4 kmh 29.84 in1010.5 mb 0.00 in0.0 mm 0.00 in0.0 mm 0.00 in0.0 mm
07:20 PM 97.5°F36.4°C 20.0°F-6.7°C 6% 1.7 mph SW2.7 kmh SW 4.0 mph6.4 kmh 29.84 in1010.5 mb 0.00 in0.0 mm 0.00 in0.0 mm 0.00 in0.0 mm
07:30 PM 97.4°F36.3°C 20.0°F-6.7°C 6% 1.7 mph SSW2.7 kmh SSW 6.0 mph9.7 kmh 29.84 in1010.5 mb 0.00 in0.0 mm 0.00 in0.0 mm 0.00 in0.0 mm
07:40 PM 96.8°F36.0°C 19.0°F-7.2°C 6% 0.6 mph SSW1.0 kmh SSW 4.0 mph6.4 kmh 29.84 in1010.5 mb 0.00 in0.0 mm 0.00 in0.0 mm 0.00 in0.0 mm
07:50 PM 96.2°F35.7°C 19.0°F-7.2°C 6% 2.1 mph SW3.4 kmh SW 5.0 mph8.0 kmh 29.84 in1010.5 mb 0.00 in0.0 mm 0.00 in0.0 mm 0.00 in0.0 mm
08:00 PM 95.5°F35.3°C 22.0°F-5.6°C 7% 1.4 mph SSW2.3 kmh SSW 4.0 mph6.4 kmh 29.84 in1010.5 mb 0.00 in0.0 mm 0.00 in0.0 mm 0.00 in0.0 mm
08:10 PM 94.7°F34.8°C 21.0°F-6.1°C 7% 0.7 mph SE1.1 kmh SE 2.0 mph3.2 kmh 29.84 in1010.5 mb 0.00 in0.0 mm 0.00 in0.0 mm 0.00 in0.0 mm
08:20 PM 94.0°F34.4°C 21.0°F-6.1°C 7% 0.3 mph S0.5 kmh S 1.0 mph1.6 kmh 29.84 in1010.5 mb 0.00 in0.0 mm 0.00 in0.0 mm 0.00 in0.0 mm
08:30 PM 93.5°F34.2°C 21.0°F-6.1°C 7% 0.1 mph S0.2 kmh S 1.0 mph1.6 kmh 29.84 in1010.5 mb 0.00 in0.0 mm 0.00 in0.0 mm 0.00 in0.0 mm
08:40 PM 92.6°F33.7°C 23.0°F-5.0°C 8% Calm Calm 1.0 mph1.6 kmh 29.84 in1010.5 mb 0.00 in0.0 mm 0.00 in0.0 mm 0.00 in0.0 mm
08:50 PM 92.2°F33.4°C 23.0°F-5.0°C 8% Calm Calm 1.0 mph1.6 kmh 29.84 in1010.5 mb 0.00 in0.0 mm 0.00 in0.0 mm 0.00 in0.0 mm
09:00 PM 91.6°F33.1°C 25.0°F-3.9°C 9% Calm Calm -- 29.84 in1010.5 mb 0.00 in0.0 mm 0.00 in0.0 mm 0.00 in0.0 mm
09:10 PM 90.0°F32.2°C 26.0°F-3.3°C 10% Calm Calm -- 29.84 in1010.5 mb 0.00 in0.0 mm 0.00 in0.0 mm 0.00 in0.0 mm
09:20 PM 89.2°F31.8°C 26.0°F-3.3°C 10% Calm Calm -- 29.84 in1010.5 mb 0.00 in0.0 mm 0.00 in0.0 mm 0.00 in0.0 mm
09:30 PM 88.6°F31.4°C 28.0°F-2.2°C 11% Calm Calm -- 29.84 in1010.5 mb 0.00 in0.0 mm 0.00 in0.0 mm 0.00 in0.0 mm
09:40 PM 87.8°F31.0°C 27.0°F-2.8°C 11% Calm Calm -- 29.84 in1010.5 mb 0.00 in0.0 mm 0.00 in0.0 mm 0.00 in0.0 mm
09:50 PM 87.0°F30.6°C 29.0°F-1.7°C 12% Calm Calm -- 29.84 in1010.5 mb 0.00 in0.0 mm 0.00 in0.0 mm 0.00 in0.0 mm
10:00 PM 86.9°F30.5°C 28.0°F-2.2°C 12% Calm Calm -- 29.84 in1010.5 mb 0.00 in0.0 mm 0.00 in0.0 mm 0.00 in0.0 mm
10:10 PM 87.2°F30.7°C 29.0°F-1.7°C 12% Calm Calm -- 29.84 in1010.5 mb 0.00 in0.0 mm 0.00 in0.0 mm 0.00 in0.0 mm
10:20 PM 87.0°F30.6°C 29.0°F-1.7°C 12% Calm Calm -- 29.84 in1010.5 mb 0.00 in0.0 mm 0.00 in0.0 mm 0.00 in0.0 mm
10:30 PM 86.6°F30.3°C 28.0°F-2.2°C 12% Calm Calm -- 29.84 in1010.5 mb 0.00 in0.0 mm 0.00 in0.0 mm 0.00 in0.0 mm
10:40 PM 86.3°F30.2°C 28.0°F-2.2°C 12% Calm Calm -- 29.84 in1010.5 mb 0.00 in0.0 mm 0.00 in0.0 mm 0.00 in0.0 mm
10:50 PM 86.3°F30.2°C 28.0°F-2.2°C 12% 0.1 mph SSW0.2 kmh SSW 1.0 mph1.6 kmh 29.84 in1010.5 mb 0.00 in0.0 mm 0.00 in0.0 mm 0.00 in0.0 mm
11:00 PM 86.4°F30.2°C 30.0°F-1.1°C 13% Calm Calm -- 29.84 in1010.5 mb 0.00 in0.0 mm 0.00 in0.0 mm 0.00 in0.0 mm
11:10 PM 86.0°F30.0°C 30.0°F-1.1°C 13% Calm Calm 1.0 mph1.6 kmh 29.84 in1010.5 mb 0.00 in0.0 mm 0.00 in0.0 mm 0.00 in0.0 mm
11:20 PM 85.0°F29.4°C 31.0°F-0.6°C 14% Calm Calm -- 29.84 in1010.5 mb 0.00 in0.0 mm 0.00 in0.0 mm 0.00 in0.0 mm
11:30 PM 84.5°F29.2°C 28.0°F-2.2°C 13% 0.1 mph ESE0.2 kmh ESE 1.0 mph1.6 kmh 29.84 in1010.5 mb 0.00 in0.0 mm 0.00 in0.0 mm 0.00 in0.0 mm
11:40 PM 85.0°F29.4°C 29.0°F-1.7°C 13% 0.3 mph E0.5 kmh E 1.0 mph1.6 kmh 29.84 in1010.5 mb 0.00 in0.0 mm 0.00 in0.0 mm 0.00 in0.0 mm
11:50 PM 85.5°F29.7°C 29.0°F-1.7°C 13% 0.2 mph E0.3 kmh E 1.0 mph1.6 kmh 29.84 in1010.5 mb 0.00 in0.0 mm 0.00 in0.0 mm 0.00 in0.0 mm